createdAt,value
2018-07-24T00:00:03.901Z,25.60
2018-07-24T00:02:32.229Z,25.60
2018-07-24T00:05:00.485Z,25.50
2018-07-24T00:07:28.768Z,25.50
2018-07-24T00:09:57.021Z,25.40
2018-07-24T00:12:25.293Z,25.40
2018-07-24T00:14:53.531Z,25.40
2018-07-24T00:17:21.902Z,25.40
2018-07-24T00:19:50.124Z,25.40
2018-07-24T00:22:18.926Z,25.30
2018-07-24T00:24:47.138Z,25.30
2018-07-24T00:29:43.346Z,25.30
2018-07-24T00:32:11.923Z,25.30
2018-07-24T00:34:40.156Z,25.30
2018-07-24T00:37:08.438Z,25.30
2018-07-24T00:39:36.959Z,25.30
2018-07-24T00:42:05.215Z,25.30
2018-07-24T00:44:33.467Z,25.30
2018-07-24T00:47:01.686Z,25.30
2018-07-24T00:49:29.898Z,25.30
2018-07-24T00:51:58.129Z,25.20
2018-07-24T00:54:26.377Z,25.20
2018-07-24T00:56:54.597Z,25.20
2018-07-24T00:59:23.794Z,25.10
2018-07-24T01:01:52.014Z,25.10
2018-07-24T01:04:20.337Z,25.00
2018-07-24T01:06:48.603Z,25.00
2018-07-24T01:09:16.813Z,25.00
2018-07-24T01:11:45.151Z,25.00
2018-07-24T01:14:13.358Z,25.00
2018-07-24T01:16:41.605Z,24.90
2018-07-24T01:19:09.879Z,24.90
2018-07-24T01:21:38.373Z,24.90
2018-07-24T01:24:06.593Z,24.90
2018-07-24T01:26:34.818Z,24.90
2018-07-24T01:29:04.122Z,24.90
2018-07-24T01:31:32.387Z,24.90
2018-07-24T01:34:00.596Z,24.90
2018-07-24T01:36:28.861Z,24.90
2018-07-24T01:38:57.297Z,24.90
2018-07-24T01:41:25.526Z,24.90
2018-07-24T01:43:53.782Z,24.80
2018-07-24T01:46:22.328Z,24.80
2018-07-24T01:48:50.571Z,24.70
2018-07-24T01:51:18.826Z,24.70
2018-07-24T01:53:47.414Z,24.70
2018-07-24T01:56:15.682Z,24.60
2018-07-24T01:58:44.006Z,24.60
2018-07-24T02:01:12.297Z,24.60
2018-07-24T02:03:40.510Z,24.60
2018-07-24T02:06:08.719Z,24.60
2018-07-24T02:08:37.848Z,24.50
2018-07-24T02:11:06.397Z,24.50
2018-07-24T02:13:34.672Z,24.40
2018-07-24T02:16:03.938Z,24.40
2018-07-24T02:18:32.669Z,24.40
2018-07-24T02:21:00.881Z,24.40
2018-07-24T02:23:29.130Z,24.40
2018-07-24T02:25:57.400Z,24.40
2018-07-24T02:28:25.676Z,24.40
2018-07-24T02:30:53.915Z,24.40
2018-07-24T02:33:22.171Z,24.40
2018-07-24T02:35:50.851Z,24.40
2018-07-24T02:38:19.152Z,24.40
2018-07-24T02:40:47.412Z,24.40
2018-07-24T02:43:15.854Z,24.30
2018-07-24T02:45:44.331Z,24.20
2018-07-24T02:48:12.599Z,24.20
2018-07-24T02:50:41.602Z,24.20
2018-07-24T02:53:09.804Z,24.20
2018-07-24T02:55:38.021Z,24.10
2018-07-24T02:58:06.613Z,24.20
2018-07-24T03:00:34.843Z,24.10
2018-07-24T03:03:03.100Z,24.10
2018-07-24T03:05:31.634Z,24.10
2018-07-24T03:08:00.041Z,24.10
2018-07-24T03:10:28.281Z,24.10
2018-07-24T03:12:56.506Z,24.10
2018-07-24T03:15:24.762Z,24.10
2018-07-24T03:17:52.975Z,24.10
2018-07-24T03:20:21.228Z,24.10
2018-07-24T03:22:49.592Z,24.00
2018-07-24T03:25:18.012Z,23.90
2018-07-24T03:27:46.415Z,23.90
2018-07-24T03:30:14.664Z,23.80
2018-07-24T03:32:42.906Z,23.80
2018-07-24T03:35:11.882Z,23.80
2018-07-24T03:37:41.067Z,23.70
2018-07-24T03:40:09.379Z,23.70
2018-07-24T03:42:37.917Z,23.80
2018-07-24T03:45:07.265Z,23.70
2018-07-24T03:47:36.426Z,23.70
2018-07-24T03:50:04.655Z,23.70
2018-07-24T03:52:32.890Z,23.70
2018-07-24T03:55:01.146Z,23.70
2018-07-24T03:57:29.470Z,23.70
2018-07-24T03:59:57.853Z,23.70
2018-07-24T04:02:26.738Z,23.70
2018-07-24T04:04:54.993Z,23.70
2018-07-24T04:07:23.580Z,23.60
2018-07-24T04:09:51.871Z,23.60
2018-07-24T04:12:20.615Z,23.60
2018-07-24T04:14:48.824Z,23.60
2018-07-24T04:17:17.082Z,23.60
2018-07-24T04:19:45.282Z,23.70
2018-07-24T04:22:13.494Z,23.70
2018-07-24T04:24:41.736Z,23.70
2018-07-24T04:27:10.030Z,23.80
2018-07-24T04:29:38.238Z,23.80
2018-07-24T04:32:06.851Z,23.70
2018-07-24T04:34:35.096Z,23.70
2018-07-24T04:37:03.906Z,23.80
2018-07-24T04:39:32.363Z,23.80
2018-07-24T04:42:00.966Z,23.80
2018-07-24T04:44:29.238Z,23.90
2018-07-24T04:46:57.462Z,23.90
2018-07-24T04:49:25.701Z,24.00
2018-07-24T04:51:54.744Z,24.10
2018-07-24T04:54:22.945Z,24.10
2018-07-24T04:56:52.174Z,24.10
2018-07-24T04:59:21.378Z,24.10
2018-07-24T05:01:49.614Z,24.10
2018-07-24T05:04:17.863Z,24.10
2018-07-24T05:06:46.189Z,24.20
2018-07-24T05:09:14.464Z,24.30
2018-07-24T05:11:44.026Z,24.50
2018-07-24T05:14:12.497Z,24.60
2018-07-24T05:16:41.466Z,24.60
2018-07-24T05:19:09.783Z,24.70
2018-07-24T05:21:38.888Z,24.80
2018-07-24T05:24:07.591Z,24.80
2018-07-24T05:26:36.578Z,24.90
2018-07-24T05:29:04.955Z,24.90
2018-07-24T05:31:33.183Z,24.90
2018-07-24T05:34:01.398Z,25.00
2018-07-24T05:36:29.658Z,25.00
2018-07-24T05:38:57.871Z,25.00
2018-07-24T05:41:26.103Z,25.00
2018-07-24T05:43:54.309Z,25.10
2018-07-24T05:46:22.581Z,25.30
2018-07-24T05:48:50.851Z,25.30
2018-07-24T05:51:19.166Z,25.30
2018-07-24T05:53:47.381Z,25.30
2018-07-24T05:56:16.311Z,25.40
2018-07-24T05:58:44.626Z,25.30
2018-07-24T06:01:13.577Z,25.30
2018-07-24T06:03:42.084Z,25.40
2018-07-24T06:06:10.301Z,25.50
2018-07-24T06:08:38.492Z,25.50
2018-07-24T06:11:07.396Z,25.50
2018-07-24T06:13:35.642Z,25.50
2018-07-24T06:16:03.931Z,25.50
2018-07-24T06:18:32.265Z,25.50
2018-07-24T06:21:00.487Z,25.50
2018-07-24T06:23:28.858Z,25.50
2018-07-24T06:25:57.041Z,25.50
2018-07-24T06:28:25.323Z,25.50
2018-07-24T06:30:53.577Z,25.50
2018-07-24T06:33:21.773Z,25.60
2018-07-24T06:35:50.033Z,25.60
2018-07-24T06:38:18.254Z,25.50
2018-07-24T06:40:46.528Z,25.40
2018-07-24T06:43:14.735Z,25.40
2018-07-24T06:45:42.975Z,25.40
2018-07-24T06:48:11.256Z,25.40
2018-07-24T06:50:39.530Z,25.40
2018-07-24T06:53:07.785Z,25.50
2018-07-24T06:55:36.199Z,25.50
2018-07-24T06:58:04.471Z,25.50
2018-07-24T07:00:32.666Z,25.50
2018-07-24T07:03:01.870Z,25.60
2018-07-24T07:05:30.091Z,25.60
2018-07-24T07:07:58.262Z,25.70
2018-07-24T07:10:26.511Z,25.70
2018-07-24T07:12:55.092Z,25.80
2018-07-24T07:15:23.502Z,26.00
2018-07-24T07:17:51.749Z,26.10
2018-07-24T07:20:20.012Z,26.10
2018-07-24T07:22:48.247Z,26.10
2018-07-24T07:25:16.506Z,26.10
2018-07-24T07:27:44.751Z,26.10
2018-07-24T07:30:12.956Z,26.60
2018-07-24T07:32:41.352Z,27.40
2018-07-24T07:35:09.479Z,27.80
2018-07-24T07:37:38.530Z,27.90
2018-07-24T07:40:06.702Z,28.10
2018-07-24T07:42:35.219Z,28.10
2018-07-24T07:45:03.592Z,27.90
2018-07-24T07:47:31.936Z,27.80
2018-07-24T07:50:00.733Z,27.70
2018-07-24T07:52:29.990Z,27.50
2018-07-24T07:54:58.147Z,27.40
2018-07-24T07:57:26.361Z,27.40
2018-07-24T07:59:54.598Z,27.40
2018-07-24T08:02:22.969Z,27.40
2018-07-24T08:04:51.295Z,27.40
2018-07-24T08:07:19.485Z,27.50
2018-07-24T08:09:48.019Z,27.50
2018-07-24T08:12:16.216Z,27.60
2018-07-24T08:14:44.426Z,27.80
2018-07-24T08:17:12.644Z,28.00
2018-07-24T08:19:41.275Z,28.30
2018-07-24T08:22:09.673Z,29.30
2018-07-24T08:24:37.893Z,31.60
2018-07-24T08:27:06.311Z,34.20
2018-07-24T08:29:34.795Z,36.50
2018-07-24T08:32:03.028Z,38.30
2018-07-24T08:34:31.289Z,39.70
2018-07-24T08:36:59.919Z,40.70
2018-07-24T08:39:28.369Z,41.50
2018-07-24T08:41:56.752Z,42.10
2018-07-24T08:44:25.242Z,42.60
2018-07-24T08:46:53.603Z,43.20
2018-07-24T08:49:21.860Z,43.40
2018-07-24T08:51:50.270Z,43.80
2018-07-24T08:54:18.888Z,44.00
2018-07-24T08:56:46.970Z,44.20
2018-07-24T08:59:15.304Z,44.20
2018-07-24T09:01:43.645Z,43.90
2018-07-24T09:04:12.557Z,43.70
2018-07-24T09:06:40.899Z,43.30
2018-07-24T09:09:10.528Z,42.70
2018-07-24T09:11:38.868Z,41.50
2018-07-24T09:14:07.110Z,40.00
2018-07-24T09:16:35.344Z,38.40
2018-07-24T09:19:03.584Z,37.20
2018-07-24T09:21:32.656Z,36.10
2018-07-24T09:24:00.935Z,35.30
2018-07-24T09:26:29.209Z,34.60
2018-07-24T09:28:57.547Z,34.10
2018-07-24T09:31:25.806Z,33.60
2018-07-24T09:33:54.222Z,33.30
2018-07-24T09:36:22.626Z,33.00
2018-07-24T09:38:50.894Z,32.70
2018-07-24T09:41:19.118Z,32.40
2018-07-24T09:43:47.607Z,32.20
2018-07-24T09:46:16.032Z,32.10
2018-07-24T09:48:44.305Z,32.00
2018-07-24T09:51:12.559Z,31.90
2018-07-24T09:53:41.787Z,31.80
2018-07-24T09:56:10.051Z,31.80
2018-07-24T09:58:38.361Z,31.90
2018-07-24T10:01:12.185Z,31.90
2018-07-24T10:06:08.487Z,32.00
2018-07-24T10:08:36.735Z,31.90
2018-07-24T10:11:05.077Z,31.90
2018-07-24T10:13:33.338Z,31.90
2018-07-24T10:16:01.626Z,31.80
2018-07-24T10:18:29.970Z,31.90
2018-07-24T10:20:58.229Z,31.80
2018-07-24T10:23:26.539Z,31.90
2018-07-24T10:25:54.835Z,31.90
2018-07-24T10:28:23.162Z,31.90
2018-07-24T10:30:51.436Z,32.00
2018-07-24T10:33:19.729Z,31.90
2018-07-24T10:35:47.974Z,31.80
2018-07-24T10:38:16.225Z,31.50
2018-07-24T10:43:12.491Z,31.70
2018-07-24T10:45:40.751Z,31.80
2018-07-24T10:48:09.108Z,31.90
2018-07-24T10:50:37.337Z,32.00
2018-07-24T10:53:05.662Z,32.10
2018-07-24T10:55:33.992Z,32.10
2018-07-24T10:58:02.238Z,32.10
2018-07-24T11:00:30.529Z,32.10
2018-07-24T11:02:58.871Z,32.10
2018-07-24T11:05:27.132Z,32.10
2018-07-24T11:07:55.790Z,32.10
2018-07-24T11:10:24.073Z,32.20
2018-07-24T11:12:52.583Z,32.30
2018-07-24T11:15:20.959Z,32.30
2018-07-24T11:17:49.242Z,32.30
2018-07-24T11:20:17.479Z,32.30
2018-07-24T11:22:45.942Z,32.30
2018-07-24T11:25:14.435Z,32.40
2018-07-24T11:27:42.690Z,32.40
2018-07-24T11:30:11.427Z,32.50
2018-07-24T11:32:39.677Z,32.50
2018-07-24T11:35:07.896Z,32.50
2018-07-24T11:37:36.149Z,32.50
2018-07-24T11:40:04.414Z,32.60
2018-07-24T11:42:32.619Z,32.70
2018-07-24T11:45:00.924Z,32.70
2018-07-24T11:49:57.808Z,32.90
2018-07-24T11:52:26.651Z,32.90
2018-07-24T11:54:54.995Z,32.90
2018-07-24T11:57:23.297Z,32.90
2018-07-24T11:59:51.642Z,33.00
2018-07-24T12:02:19.866Z,33.10
2018-07-24T12:04:48.726Z,33.10
2018-07-24T12:07:17.105Z,33.20
2018-07-24T12:09:45.377Z,33.20
2018-07-24T12:12:13.624Z,33.30
2018-07-24T12:14:41.971Z,33.20
2018-07-24T12:17:10.174Z,33.00
2018-07-24T12:19:38.580Z,33.10
2018-07-24T12:22:06.810Z,33.20
2018-07-24T12:24:35.186Z,33.30
2018-07-24T12:27:04.032Z,33.30
2018-07-24T12:29:32.411Z,33.40
2018-07-24T12:32:00.650Z,33.30
2018-07-24T12:34:28.994Z,33.30
2018-07-24T12:36:57.305Z,33.30
2018-07-24T12:39:25.599Z,33.40
2018-07-24T12:41:53.890Z,33.40
2018-07-24T12:44:22.198Z,33.50
2018-07-24T12:49:19.151Z,33.40
2018-07-24T12:51:47.557Z,33.20
2018-07-24T12:54:16.017Z,33.00
2018-07-24T12:56:44.235Z,32.80
2018-07-24T12:59:12.565Z,32.80
2018-07-24T13:01:40.778Z,32.70
2018-07-24T13:04:09.086Z,32.70
2018-07-24T13:06:37.319Z,32.80
2018-07-24T13:09:08.940Z,32.80
2018-07-24T13:11:37.290Z,32.90
2018-07-24T13:14:06.187Z,32.90
2018-07-24T13:16:35.057Z,33.00
2018-07-24T13:19:03.335Z,33.00
2018-07-24T13:21:32.162Z,33.10
2018-07-24T13:24:00.396Z,33.20
2018-07-24T13:26:28.619Z,33.30
2018-07-24T13:28:56.871Z,33.20
2018-07-24T13:31:25.133Z,33.20
2018-07-24T13:33:53.669Z,33.30
2018-07-24T13:36:22.187Z,33.40
2018-07-24T13:38:50.810Z,33.50
2018-07-24T13:41:19.219Z,33.60
2018-07-24T13:43:47.532Z,33.50
2018-07-24T13:46:16.510Z,33.50
2018-07-24T13:48:44.710Z,33.50
2018-07-24T13:51:12.953Z,33.30
2018-07-24T13:53:41.192Z,33.10
2018-07-24T13:56:09.423Z,32.90
2018-07-24T13:58:37.677Z,32.80
2018-07-24T14:01:05.954Z,32.90
2018-07-24T14:03:34.206Z,33.10
2018-07-24T14:06:02.416Z,33.20
2018-07-24T14:08:31.072Z,33.30
2018-07-24T14:10:59.871Z,33.10
2018-07-24T14:13:28.489Z,33.00
2018-07-24T14:15:56.690Z,33.00
2018-07-24T14:18:25.176Z,33.10
2018-07-24T14:20:53.673Z,33.20
2018-07-24T14:23:22.136Z,33.30
2018-07-24T14:25:50.390Z,33.30
2018-07-24T14:28:18.630Z,33.40
2018-07-24T14:30:47.147Z,33.50
2018-07-24T14:33:15.456Z,33.70
2018-07-24T14:35:44.011Z,33.90
2018-07-24T14:38:12.530Z,33.90
2018-07-24T14:40:40.953Z,33.90
2018-07-24T14:43:09.170Z,34.10
2018-07-24T14:45:37.415Z,34.10
2018-07-24T14:48:05.928Z,34.20
2018-07-24T14:50:34.188Z,34.10
2018-07-24T14:53:02.602Z,33.90
2018-07-24T14:55:30.938Z,33.70
2018-07-24T14:57:59.560Z,33.50
2018-07-24T15:00:28.183Z,33.30
2018-07-24T15:02:56.372Z,33.10
2018-07-24T15:05:24.598Z,33.00
2018-07-24T15:07:52.886Z,33.00
2018-07-24T15:10:21.122Z,33.00
2018-07-24T15:12:49.344Z,32.90
2018-07-24T15:15:17.590Z,32.90
2018-07-24T15:17:46.250Z,33.00
2018-07-24T15:20:14.647Z,33.10
2018-07-24T15:22:42.865Z,33.30
2018-07-24T15:25:11.359Z,33.40
2018-07-24T15:27:39.634Z,33.60
2018-07-24T15:30:08.630Z,33.70
2018-07-24T15:32:36.873Z,33.80
2018-07-24T15:35:05.259Z,33.90
2018-07-24T15:37:33.489Z,33.90
2018-07-24T15:40:01.712Z,34.00
2018-07-24T15:42:30.012Z,34.00
2018-07-24T15:44:58.319Z,34.10
2018-07-24T15:47:26.565Z,34.20
2018-07-24T15:49:54.932Z,34.00
2018-07-24T15:52:23.169Z,33.80
2018-07-24T15:54:51.910Z,33.70
2018-07-24T15:57:20.273Z,33.50
2018-07-24T15:59:48.649Z,33.40
2018-07-24T16:02:16.927Z,33.40
2018-07-24T16:04:45.173Z,33.50
2018-07-24T16:07:13.435Z,33.50
2018-07-24T16:09:41.719Z,33.50
2018-07-24T16:12:10.561Z,33.60
2018-07-24T16:14:39.634Z,33.70
2018-07-24T16:17:08.224Z,33.70
2018-07-24T16:19:36.729Z,33.70
2018-07-24T16:22:05.464Z,33.80
2018-07-24T16:24:33.701Z,33.90
2018-07-24T16:27:01.912Z,33.90
2018-07-24T16:29:30.239Z,34.00
2018-07-24T16:31:58.522Z,34.00
2018-07-24T16:34:26.970Z,34.10
2018-07-24T16:36:56.037Z,34.10
2018-07-24T16:39:24.299Z,34.10
2018-07-24T16:41:52.550Z,34.00
2018-07-24T16:44:20.870Z,34.00
2018-07-24T16:46:49.185Z,34.10
2018-07-24T16:49:17.476Z,34.10
2018-07-24T16:51:45.669Z,34.00
2018-07-24T16:54:13.874Z,34.00
2018-07-24T16:56:42.114Z,33.90
2018-07-24T16:59:11.166Z,33.90
2018-07-24T17:01:40.487Z,33.80
2018-07-24T17:04:08.799Z,33.90
2018-07-24T17:06:37.032Z,33.90
2018-07-24T17:09:09.104Z,33.90
2018-07-24T17:11:37.782Z,33.90
2018-07-24T17:14:06.134Z,33.90
2018-07-24T17:16:34.459Z,33.90
2018-07-24T17:19:03.288Z,33.80
2018-07-24T17:21:32.076Z,33.80
2018-07-24T17:24:01.388Z,33.80
2018-07-24T17:26:30.402Z,33.70
2018-07-24T17:28:58.802Z,33.70
2018-07-24T17:31:27.131Z,33.70
2018-07-24T17:33:55.422Z,33.70
2018-07-24T17:36:24.103Z,33.70
2018-07-24T17:38:52.369Z,33.60
2018-07-24T17:41:20.694Z,33.50
2018-07-24T17:43:49.035Z,33.50
2018-07-24T17:46:17.271Z,33.50
2018-07-24T17:48:45.782Z,33.40
2018-07-24T17:51:14.118Z,33.30
2018-07-24T17:53:42.338Z,33.30
2018-07-24T17:56:10.958Z,33.30
2018-07-24T17:58:39.295Z,33.20
2018-07-24T18:01:07.573Z,33.20
2018-07-24T18:03:35.783Z,33.10
2018-07-24T18:06:04.064Z,33.10
2018-07-24T18:08:32.455Z,33.00
2018-07-24T18:11:00.737Z,32.90
2018-07-24T18:13:29.414Z,32.90
2018-07-24T18:15:57.734Z,32.80
2018-07-24T18:18:25.967Z,32.80
2018-07-24T18:20:54.307Z,32.80
2018-07-24T18:23:22.587Z,32.70
2018-07-24T18:25:50.920Z,32.60
2018-07-24T18:28:19.215Z,32.60
2018-07-24T18:30:47.788Z,32.60
2018-07-24T18:33:16.029Z,32.60
2018-07-24T18:35:44.757Z,32.40
2018-07-24T18:38:13.090Z,32.40
2018-07-24T18:40:41.307Z,32.40
2018-07-24T18:43:09.574Z,32.30
2018-07-24T18:45:37.902Z,32.20
2018-07-24T18:48:06.115Z,32.10
2018-07-24T18:50:34.389Z,32.10
2018-07-24T18:53:02.622Z,32.00
2018-07-24T18:55:30.877Z,32.00
2018-07-24T18:57:59.095Z,31.90
2018-07-24T19:00:27.551Z,31.80
2018-07-24T19:02:55.886Z,31.70
2018-07-24T19:05:24.164Z,31.60
2018-07-24T19:07:52.822Z,31.50
2018-07-24T19:10:21.119Z,31.40
2018-07-24T19:12:49.487Z,31.30
2018-07-24T19:15:17.750Z,31.20
2018-07-24T19:17:46.066Z,31.20
2018-07-24T19:20:14.533Z,31.10
2018-07-24T19:22:42.922Z,31.00
2018-07-24T19:25:11.200Z,31.00
2018-07-24T19:27:39.460Z,30.90
2018-07-24T19:30:08.736Z,30.90
2018-07-24T19:32:37.239Z,30.80
2018-07-24T19:35:05.709Z,30.80
2018-07-24T19:37:33.998Z,30.80
2018-07-24T19:40:02.227Z,30.70
2018-07-24T19:42:30.633Z,30.60
2018-07-24T19:44:59.003Z,30.60
2018-07-24T19:47:27.286Z,30.60
2018-07-24T19:49:55.513Z,30.50
2018-07-24T19:52:23.837Z,30.50
2018-07-24T19:54:53.000Z,30.50
2018-07-24T19:57:22.198Z,30.40
2018-07-24T20:02:18.432Z,30.40
2018-07-24T20:04:46.681Z,30.30
2018-07-24T20:07:14.907Z,30.30
2018-07-24T20:09:43.481Z,30.30
2018-07-24T20:12:11.728Z,30.20
2018-07-24T20:14:39.975Z,30.20
2018-07-24T20:17:08.206Z,30.10
2018-07-24T20:19:36.537Z,30.10
2018-07-24T20:22:05.018Z,30.00
2018-07-24T20:24:33.625Z,30.00
2018-07-24T20:27:01.981Z,30.00
2018-07-24T20:29:30.294Z,29.90
2018-07-24T20:31:58.645Z,29.90
2018-07-24T20:34:26.910Z,29.90
2018-07-24T20:36:55.137Z,29.90
2018-07-24T20:39:23.407Z,29.80
2018-07-24T20:41:51.651Z,29.70
2018-07-24T20:44:19.898Z,29.70
2018-07-24T20:46:48.277Z,27.90
2018-07-24T20:49:16.725Z,29.60
2018-07-24T20:51:45.334Z,29.60
2018-07-24T20:54:13.568Z,29.60
2018-07-24T20:56:41.831Z,29.50
2018-07-24T20:59:10.176Z,29.50
2018-07-24T21:01:38.479Z,29.50
2018-07-24T21:04:06.802Z,29.50
2018-07-24T21:06:35.153Z,29.50
2018-07-24T21:09:03.432Z,29.50
2018-07-24T21:11:31.658Z,29.40
2018-07-24T21:13:59.908Z,29.40
2018-07-24T21:16:28.181Z,29.30
2018-07-24T21:18:56.526Z,29.30
2018-07-24T21:21:24.902Z,29.30
2018-07-24T21:23:53.142Z,29.30
2018-07-24T21:26:21.444Z,29.20
2018-07-24T21:28:49.785Z,29.20
2018-07-24T21:31:18.050Z,29.20
2018-07-24T21:33:46.413Z,29.10
2018-07-24T21:36:14.703Z,29.10
2018-07-24T21:38:42.995Z,29.10
2018-07-24T21:41:11.228Z,29.10
2018-07-24T21:43:39.474Z,29.10
2018-07-24T21:46:07.787Z,29.00
2018-07-24T21:48:35.989Z,29.00
2018-07-24T21:51:04.308Z,28.90
2018-07-24T21:53:32.586Z,28.80
2018-07-24T21:56:00.851Z,28.80
2018-07-24T21:58:29.164Z,28.70
2018-07-24T22:01:02.708Z,28.70
2018-07-24T22:03:31.354Z,28.60
2018-07-24T22:05:59.668Z,28.60
2018-07-24T22:08:27.910Z,28.60
2018-07-24T22:13:24.247Z,28.50
2018-07-24T22:15:52.532Z,28.40
2018-07-24T22:18:20.764Z,28.40
2018-07-24T22:20:49.083Z,28.40
2018-07-24T22:23:17.283Z,28.40
2018-07-24T22:25:46.595Z,28.40
2018-07-24T22:28:14.831Z,28.40
2018-07-24T22:30:43.068Z,28.40
2018-07-24T22:33:11.282Z,28.40
2018-07-24T22:35:39.915Z,28.40
2018-07-24T22:38:08.183Z,28.40
2018-07-24T22:40:36.625Z,28.40
2018-07-24T22:43:04.949Z,28.30
2018-07-24T22:45:33.600Z,28.30
2018-07-24T22:48:02.007Z,28.20
2018-07-24T22:50:30.317Z,28.10
2018-07-24T22:52:58.476Z,28.10
2018-07-24T22:55:26.703Z,28.00
2018-07-24T22:57:55.002Z,28.00
2018-07-24T23:00:23.254Z,28.00
2018-07-24T23:02:51.730Z,28.00
2018-07-24T23:05:20.021Z,28.00
2018-07-24T23:10:16.336Z,28.00
2018-07-24T23:12:44.558Z,28.00
2018-07-24T23:15:12.862Z,28.00
2018-07-24T23:17:41.207Z,27.90
2018-07-24T23:20:09.402Z,27.90
2018-07-24T23:22:37.642Z,27.90
2018-07-24T23:27:33.927Z,27.90
2018-07-24T23:30:02.157Z,27.80
2018-07-24T23:32:30.375Z,27.90
2018-07-24T23:34:58.601Z,27.90
2018-07-24T23:39:54.844Z,27.80
2018-07-24T23:42:23.113Z,27.70
2018-07-24T23:44:51.369Z,27.70
2018-07-24T23:47:19.566Z,27.60
2018-07-24T23:49:47.749Z,27.50
2018-07-24T23:52:16.086Z,27.50
2018-07-24T23:54:44.297Z,27.40
2018-07-24T23:57:12.625Z,27.40
2018-07-24T23:59:40.933Z,27.40
